createdAt,value
2018-07-17T00:01:25.442Z,77.70
2018-07-17T00:03:53.902Z,77.60
2018-07-17T00:06:22.371Z,78.50
2018-07-17T00:08:50.883Z,80.00
2018-07-17T00:11:19.387Z,81.30
2018-07-17T00:13:47.995Z,82.00
2018-07-17T00:16:16.522Z,83.40
2018-07-17T00:18:45.142Z,84.20
2018-07-17T00:21:13.567Z,83.60
2018-07-17T00:23:42.008Z,83.40
2018-07-17T00:26:10.482Z,83.20
2018-07-17T00:28:38.933Z,82.70
2018-07-17T00:31:07.392Z,82.50
2018-07-17T00:33:35.828Z,82.00
2018-07-17T00:36:04.330Z,81.10
2018-07-17T00:38:32.786Z,81.00
2018-07-17T00:41:01.259Z,81.60
2018-07-17T00:43:29.974Z,81.60
2018-07-17T00:45:58.464Z,81.00
2018-07-17T00:48:26.899Z,81.00
2018-07-17T00:50:55.424Z,80.90
2018-07-17T00:53:23.870Z,80.80
2018-07-17T00:55:52.342Z,80.70
2018-07-17T00:58:20.777Z,80.70
2018-07-17T01:00:48.453Z,80.60
2018-07-17T01:03:22.108Z,80.60
2018-07-17T01:05:55.934Z,80.60
2018-07-17T01:08:29.639Z,80.20
2018-07-17T01:11:03.473Z,79.80
2018-07-17T01:13:38.089Z,79.70
2018-07-17T01:16:06.658Z,79.40
2018-07-17T01:18:35.119Z,79.60
2018-07-17T01:21:03.610Z,80.10
2018-07-17T01:23:32.704Z,80.40
2018-07-17T01:26:01.176Z,81.00
2018-07-17T01:30:57.800Z,81.30
2018-07-17T01:33:26.241Z,81.10
2018-07-17T01:35:54.715Z,80.40
2018-07-17T01:38:23.194Z,80.40
2018-07-17T01:40:51.823Z,80.40
2018-07-17T01:43:20.251Z,81.20
2018-07-17T01:45:48.733Z,82.00
2018-07-17T01:48:17.155Z,82.00
2018-07-17T01:50:45.619Z,82.30
2018-07-17T01:53:14.403Z,82.30
2018-07-17T01:55:42.874Z,82.30
2018-07-17T01:58:11.320Z,82.00
2018-07-17T02:00:39.820Z,81.80
2018-07-17T02:03:08.267Z,82.00
2018-07-17T02:05:36.792Z,82.30
2018-07-17T02:08:05.264Z,82.20
2018-07-17T02:10:33.723Z,83.00
2018-07-17T02:13:02.196Z,83.40
2018-07-17T02:15:30.935Z,83.60
2018-07-17T02:17:59.446Z,84.00
2018-07-17T02:20:27.886Z,84.00
2018-07-17T02:22:56.352Z,83.90
2018-07-17T02:25:24.787Z,83.70
2018-07-17T02:27:53.536Z,83.60
2018-07-17T02:30:22.012Z,83.60
2018-07-17T02:32:50.502Z,83.40
2018-07-17T02:35:18.968Z,83.10
2018-07-17T02:37:47.445Z,82.90
2018-07-17T02:40:15.908Z,84.60
2018-07-17T02:42:44.378Z,86.00
2018-07-17T02:45:12.852Z,85.80
2018-07-17T02:47:41.323Z,85.90
2018-07-17T02:50:09.771Z,86.00
2018-07-17T02:52:38.255Z,85.90
2018-07-17T02:55:07.063Z,85.60
2018-07-17T02:57:35.531Z,85.00
2018-07-17T03:00:04.021Z,84.40
2018-07-17T03:02:32.724Z,84.20
2018-07-17T03:05:01.179Z,84.10
2018-07-17T03:07:29.720Z,84.30
2018-07-17T03:09:58.192Z,85.40
2018-07-17T03:12:26.663Z,85.30
2018-07-17T03:14:55.134Z,85.50
2018-07-17T03:17:23.936Z,86.00
2018-07-17T03:19:52.447Z,86.20
2018-07-17T03:22:20.907Z,85.80
2018-07-17T03:24:49.387Z,85.60
2018-07-17T03:27:17.827Z,85.10
2018-07-17T03:29:46.302Z,84.70
2018-07-17T03:32:14.723Z,84.40
2018-07-17T03:34:43.210Z,83.80
2018-07-17T03:37:11.672Z,85.10
2018-07-17T03:39:40.157Z,86.10
2018-07-17T03:42:08.938Z,86.30
2018-07-17T03:44:37.447Z,86.30
2018-07-17T03:47:05.909Z,86.10
2018-07-17T03:49:34.392Z,85.80
2018-07-17T03:52:02.877Z,85.50
2018-07-17T03:54:31.359Z,85.00
2018-07-17T03:56:59.798Z,84.60
2018-07-17T03:59:28.276Z,84.50
2018-07-17T04:01:56.728Z,84.40
2018-07-17T04:04:25.340Z,84.40
2018-07-17T04:06:53.892Z,84.30
2018-07-17T04:09:22.354Z,84.70
2018-07-17T04:11:50.842Z,84.70
2018-07-17T04:14:19.515Z,86.30
2018-07-17T04:16:54.029Z,86.20
2018-07-17T04:19:23.008Z,87.10
2018-07-17T04:21:51.971Z,87.60
2018-07-17T04:26:49.681Z,87.60
2018-07-17T04:29:18.246Z,88.30
2018-07-17T04:31:47.125Z,88.10
2018-07-17T04:34:15.871Z,87.80
2018-07-17T04:36:44.534Z,86.30
2018-07-17T04:39:13.776Z,86.20
2018-07-17T04:41:42.551Z,86.80
2018-07-17T04:44:11.318Z,86.90
2018-07-17T04:46:39.979Z,88.60
2018-07-17T04:49:08.475Z,89.40
2018-07-17T04:51:36.943Z,90.00
2018-07-17T04:54:05.504Z,90.10
2018-07-17T04:56:34.035Z,90.10
2018-07-17T04:59:02.482Z,90.10
2018-07-17T05:01:30.956Z,90.00
2018-07-17T05:03:59.563Z,90.00
2018-07-17T05:06:28.031Z,90.20
2018-07-17T05:08:56.475Z,90.20
2018-07-17T05:11:24.955Z,90.30
2018-07-17T05:13:53.396Z,90.20
2018-07-17T05:16:21.963Z,90.10
2018-07-17T05:18:50.534Z,90.10
2018-07-17T05:21:19.006Z,90.00
2018-07-17T05:23:47.611Z,89.70
2018-07-17T05:26:16.118Z,89.50
2018-07-17T05:28:44.551Z,89.30
2018-07-17T05:31:13.036Z,89.20
2018-07-17T05:33:41.718Z,88.90
2018-07-17T05:36:10.547Z,88.80
2018-07-17T05:38:38.991Z,88.20
2018-07-17T05:41:07.894Z,88.10
2018-07-17T05:43:36.353Z,88.00
2018-07-17T05:46:04.874Z,87.90
2018-07-17T05:48:33.355Z,87.60
2018-07-17T05:51:01.836Z,87.60
2018-07-17T05:53:30.287Z,87.40
2018-07-17T05:55:58.775Z,87.20
2018-07-17T05:58:27.211Z,87.30
2018-07-17T06:00:55.773Z,87.00
2018-07-17T06:03:24.246Z,87.00
2018-07-17T06:05:52.884Z,86.60
2018-07-17T06:08:21.326Z,86.40
2018-07-17T06:10:50.263Z,86.20
2018-07-17T06:13:18.699Z,86.00
2018-07-17T06:15:47.228Z,85.70
2018-07-17T06:18:15.690Z,85.60
2018-07-17T06:20:44.180Z,85.20
2018-07-17T06:23:12.635Z,85.00
2018-07-17T06:25:41.077Z,84.60
2018-07-17T06:28:09.571Z,83.90
2018-07-17T06:30:38.019Z,83.80
2018-07-17T06:33:06.892Z,83.10
2018-07-17T06:35:35.506Z,82.60
2018-07-17T06:38:04.026Z,81.80
2018-07-17T06:40:32.469Z,81.30
2018-07-17T06:43:00.951Z,81.10
2018-07-17T06:45:29.403Z,80.20
2018-07-17T06:47:57.881Z,79.80
2018-07-17T06:50:26.354Z,78.90
2018-07-17T06:52:55.360Z,78.60
2018-07-17T06:55:23.798Z,78.50
2018-07-17T06:57:52.603Z,77.80
2018-07-17T07:00:21.058Z,76.00
2018-07-17T07:02:49.535Z,75.50
2018-07-17T07:05:18.018Z,75.10
2018-07-17T07:07:46.668Z,74.70
2018-07-17T07:10:15.122Z,73.80
2018-07-17T07:12:43.591Z,73.60
2018-07-17T07:15:12.066Z,72.70
2018-07-17T07:17:40.553Z,71.90
2018-07-17T07:20:09.356Z,70.90
2018-07-17T07:22:37.852Z,70.70
2018-07-17T07:25:06.384Z,69.90
2018-07-17T07:27:34.880Z,68.80
2018-07-17T07:30:03.685Z,68.80
2018-07-17T07:32:32.162Z,68.20
2018-07-17T07:35:00.608Z,67.90
2018-07-17T07:37:29.143Z,67.90
2018-07-17T07:39:57.595Z,65.60
2018-07-17T07:42:26.072Z,64.90
2018-07-17T07:44:54.517Z,63.40
2018-07-17T07:47:23.009Z,62.90
2018-07-17T07:49:51.476Z,62.90
2018-07-17T07:52:19.919Z,62.80
2018-07-17T07:54:48.419Z,61.00
2018-07-17T07:57:16.880Z,61.70
2018-07-17T07:59:45.329Z,60.30
2018-07-17T08:02:13.791Z,59.80
2018-07-17T08:04:42.404Z,58.90
2018-07-17T08:07:11.078Z,58.00
2018-07-17T08:09:39.548Z,57.50
2018-07-17T08:12:08.061Z,57.40
2018-07-17T08:14:36.640Z,57.10
2018-07-17T08:17:05.140Z,55.10
2018-07-17T08:19:33.648Z,53.90
2018-07-17T08:22:02.243Z,53.70
2018-07-17T08:24:30.709Z,54.60
2018-07-17T08:26:59.278Z,52.60
2018-07-17T08:29:27.724Z,52.10
2018-07-17T08:31:56.714Z,51.90
2018-07-17T08:34:27.411Z,50.70
2018-07-17T08:36:56.391Z,50.80
2018-07-17T08:39:25.415Z,49.10
2018-07-17T08:41:54.571Z,48.10
2018-07-17T08:44:23.584Z,47.10
2018-07-17T08:46:52.583Z,47.70
2018-07-17T08:49:21.632Z,46.40
2018-07-17T08:51:50.639Z,47.00
2018-07-17T08:54:19.756Z,46.30
2018-07-17T08:56:48.852Z,46.10
2018-07-17T08:59:17.914Z,45.60
2018-07-17T09:01:46.916Z,45.80
2018-07-17T09:04:16.443Z,42.40
2018-07-17T09:06:45.746Z,42.50
2018-07-17T09:09:14.777Z,41.50
2018-07-17T09:11:43.787Z,41.40
2018-07-17T09:14:12.811Z,41.30
2018-07-17T09:16:41.831Z,40.90
2018-07-17T09:19:10.850Z,39.60
2018-07-17T09:21:39.903Z,40.40
2018-07-17T09:24:09.044Z,40.00
2018-07-17T09:29:08.026Z,39.90
2018-07-17T09:31:37.012Z,39.40
2018-07-17T09:34:06.687Z,38.30
2018-07-17T09:36:35.688Z,37.70
2018-07-17T09:39:06.668Z,38.70
2018-07-17T09:41:35.786Z,38.40
2018-07-17T09:44:05.115Z,38.10
2018-07-17T09:46:34.128Z,38.20
2018-07-17T09:49:03.224Z,37.00
2018-07-17T09:51:32.203Z,37.20
2018-07-17T09:54:01.246Z,37.00
2018-07-17T09:56:30.224Z,36.10
2018-07-17T09:58:59.271Z,35.30
2018-07-17T10:01:34.084Z,36.30
2018-07-17T10:04:03.111Z,35.80
2018-07-17T10:06:32.140Z,35.30
2018-07-17T10:09:01.163Z,36.00
2018-07-17T10:11:30.167Z,35.90
2018-07-17T10:13:59.196Z,35.50
2018-07-17T10:16:28.216Z,36.30
2018-07-17T10:18:57.252Z,36.90
2018-07-17T10:21:26.259Z,37.10
2018-07-17T10:23:55.393Z,36.10
2018-07-17T10:26:24.591Z,37.00
2018-07-17T10:28:53.752Z,35.80
2018-07-17T10:31:22.767Z,35.30
2018-07-17T10:33:51.738Z,35.00
2018-07-17T10:36:20.800Z,35.40
2018-07-17T10:38:49.836Z,33.80
2018-07-17T10:41:18.857Z,34.70
2018-07-17T10:43:47.872Z,33.90
2018-07-17T10:46:16.915Z,34.20
2018-07-17T10:48:45.902Z,34.90
2018-07-17T10:51:14.918Z,36.10
2018-07-17T10:53:43.919Z,35.90
2018-07-17T10:56:12.956Z,35.70
2018-07-17T10:58:41.939Z,36.40
2018-07-17T11:01:10.977Z,36.60
2018-07-17T11:03:39.967Z,36.40
2018-07-17T11:06:09.349Z,36.50
2018-07-17T11:08:38.350Z,36.10
2018-07-17T11:11:08.134Z,36.10
2018-07-17T11:13:37.142Z,35.40
2018-07-17T11:16:06.302Z,36.90
2018-07-17T11:18:35.349Z,35.70
2018-07-17T11:21:04.895Z,35.60
2018-07-17T11:23:33.906Z,37.40
2018-07-17T11:26:02.947Z,38.10
2018-07-17T11:28:31.938Z,38.20
2018-07-17T11:31:00.956Z,37.10
2018-07-17T11:33:29.942Z,38.30
2018-07-17T11:35:58.955Z,38.40
2018-07-17T11:38:28.021Z,38.90
2018-07-17T11:40:57.046Z,38.60
2018-07-17T11:43:26.064Z,39.60
2018-07-17T11:45:55.078Z,39.00
2018-07-17T11:48:24.070Z,38.90
2018-07-17T11:50:53.095Z,36.90
2018-07-17T11:53:22.108Z,33.60
2018-07-17T11:55:51.284Z,33.70
2018-07-17T11:58:20.627Z,33.00
2018-07-17T12:00:49.687Z,34.70
2018-07-17T12:03:18.684Z,36.40
2018-07-17T12:08:16.660Z,35.80
2018-07-17T12:10:45.770Z,35.70
2018-07-17T12:13:14.794Z,35.10
2018-07-17T12:15:43.819Z,33.50
2018-07-17T12:18:12.800Z,32.80
2018-07-17T12:20:41.821Z,33.30
2018-07-17T12:23:10.852Z,35.80
2018-07-17T12:25:40.361Z,35.80
2018-07-17T12:28:09.435Z,30.60
2018-07-17T12:30:38.595Z,29.70
2018-07-17T12:33:07.608Z,30.10
2018-07-17T12:38:05.360Z,29.10
2018-07-17T12:40:34.348Z,28.80
2018-07-17T12:43:03.377Z,27.90
2018-07-17T12:45:33.026Z,28.00
2018-07-17T12:48:02.051Z,27.00
2018-07-17T12:50:31.100Z,27.50
2018-07-17T12:53:00.126Z,27.20
2018-07-17T12:55:29.324Z,28.20
2018-07-17T12:57:58.308Z,27.60
2018-07-17T13:00:27.668Z,27.00
2018-07-17T13:02:56.692Z,26.60
2018-07-17T13:05:25.745Z,26.80
2018-07-17T13:07:54.759Z,26.40
2018-07-17T13:10:23.788Z,26.00
2018-07-17T13:12:52.835Z,26.60
2018-07-17T13:15:21.896Z,26.40
2018-07-17T13:17:50.949Z,27.20
2018-07-17T13:20:20.104Z,27.80
2018-07-17T13:22:49.194Z,27.90
2018-07-17T13:25:18.292Z,27.70
2018-07-17T13:27:47.605Z,27.50
2018-07-17T13:30:16.991Z,26.90
2018-07-17T13:32:45.980Z,26.20
2018-07-17T13:35:15.016Z,26.30
2018-07-17T13:37:44.049Z,25.20
2018-07-17T13:40:13.091Z,25.70
2018-07-17T13:42:42.070Z,25.70
2018-07-17T13:45:11.110Z,26.20
2018-07-17T13:47:40.109Z,27.50
2018-07-17T13:50:09.462Z,25.70
2018-07-17T13:52:38.708Z,25.60
2018-07-17T13:55:08.060Z,26.30
2018-07-17T13:57:37.103Z,25.70
2018-07-17T14:00:07.063Z,25.70
2018-07-17T14:02:36.260Z,25.20
2018-07-17T14:05:05.312Z,25.60
2018-07-17T14:07:34.326Z,24.80
2018-07-17T14:10:03.080Z,25.20
2018-07-17T14:12:31.827Z,23.60
2018-07-17T14:15:00.899Z,23.80
2018-07-17T14:17:29.970Z,23.30
2018-07-17T14:19:59.466Z,23.60
2018-07-17T14:22:28.520Z,23.60
2018-07-17T14:24:57.829Z,23.50
2018-07-17T14:27:26.874Z,23.90
2018-07-17T14:29:55.740Z,24.50
2018-07-17T14:32:24.788Z,25.40
2018-07-17T14:34:54.139Z,26.30
2018-07-17T14:37:23.754Z,26.10
2018-07-17T14:39:53.334Z,25.90
2018-07-17T14:42:22.663Z,25.30
2018-07-17T14:44:51.738Z,23.90
2018-07-17T14:47:20.846Z,24.40
2018-07-17T14:49:49.844Z,24.40
2018-07-17T14:52:19.206Z,24.90
2018-07-17T14:54:48.200Z,24.50
2018-07-17T14:57:17.226Z,24.90
2018-07-17T14:59:46.215Z,25.20
2018-07-17T15:02:15.232Z,25.30
2018-07-17T15:04:44.234Z,26.10
2018-07-17T15:07:13.455Z,26.00
2018-07-17T15:09:42.604Z,26.60
2018-07-17T15:12:12.116Z,26.50
2018-07-17T15:14:41.147Z,25.10
2018-07-17T15:17:10.224Z,25.60
2018-07-17T15:19:39.210Z,25.70
2018-07-17T15:22:08.672Z,26.30
2018-07-17T15:24:38.350Z,26.30
2018-07-17T15:27:07.349Z,26.40
2018-07-17T15:29:36.356Z,26.60
2018-07-17T15:32:05.768Z,27.00
2018-07-17T15:34:35.915Z,27.30
2018-07-17T15:37:05.301Z,27.80
2018-07-17T15:39:34.455Z,29.30
2018-07-17T15:42:04.320Z,30.20
2018-07-17T15:44:34.624Z,31.70
2018-07-17T15:47:04.532Z,33.90
2018-07-17T15:49:33.995Z,33.10
2018-07-17T15:52:03.337Z,32.10
2018-07-17T15:57:01.780Z,28.80
2018-07-17T15:59:31.132Z,26.60
2018-07-17T16:02:00.415Z,26.60
2018-07-17T16:04:29.755Z,25.90
2018-07-17T16:06:59.420Z,25.70
2018-07-17T16:09:28.759Z,25.50
2018-07-17T16:11:58.120Z,25.50
2018-07-17T16:14:27.688Z,25.10
2018-07-17T16:16:56.989Z,25.90
2018-07-17T16:19:26.214Z,26.10
2018-07-17T16:21:55.561Z,25.30
2018-07-17T16:24:25.021Z,26.10
2018-07-17T16:26:54.178Z,26.30
2018-07-17T16:29:23.391Z,26.10
2018-07-17T16:31:52.380Z,26.70
2018-07-17T16:34:21.410Z,26.00
2018-07-17T16:36:50.533Z,26.00
2018-07-17T16:39:19.866Z,25.90
2018-07-17T16:41:48.850Z,25.80
2018-07-17T16:44:17.992Z,26.30
2018-07-17T16:46:46.979Z,26.40
2018-07-17T16:49:16.014Z,26.70
2018-07-17T16:51:45.027Z,27.30
2018-07-17T16:54:14.103Z,28.10
2018-07-17T16:56:43.536Z,27.60
2018-07-17T16:59:19.687Z,27.90
2018-07-17T17:01:48.704Z,28.40
2018-07-17T17:04:17.740Z,28.60
2018-07-17T17:06:46.721Z,28.50
2018-07-17T17:09:15.763Z,28.90
2018-07-17T17:11:44.472Z,28.40
2018-07-17T17:14:13.532Z,29.00
2018-07-17T17:16:42.579Z,29.30
2018-07-17T17:19:11.603Z,29.30
2018-07-17T17:21:40.589Z,29.40
2018-07-17T17:24:09.621Z,29.60
2018-07-17T17:26:38.798Z,29.60
2018-07-17T17:29:07.843Z,30.10
2018-07-17T17:31:36.994Z,29.50
2018-07-17T17:34:06.000Z,29.80
2018-07-17T17:36:35.110Z,30.00
2018-07-17T17:39:06.290Z,30.00
2018-07-17T17:41:35.336Z,30.50
2018-07-17T17:44:05.650Z,30.50
2018-07-17T17:46:34.995Z,31.40
2018-07-17T17:49:04.143Z,32.30
2018-07-17T17:51:33.278Z,32.20
2018-07-17T17:54:02.808Z,31.60
2018-07-17T17:56:31.811Z,32.20
2018-07-17T17:59:00.900Z,33.20
2018-07-17T18:01:30.284Z,33.40
2018-07-17T18:03:59.260Z,33.60
2018-07-17T18:06:28.295Z,34.70
2018-07-17T18:08:57.285Z,34.50
2018-07-17T18:13:55.164Z,35.00
2018-07-17T18:16:24.195Z,35.60
2018-07-17T18:18:53.174Z,35.50
2018-07-17T18:21:22.195Z,35.40
2018-07-17T18:23:51.186Z,35.70
2018-07-17T18:26:20.204Z,35.60
2018-07-17T18:28:49.188Z,35.80
2018-07-17T18:31:18.236Z,35.90
2018-07-17T18:33:47.235Z,36.50
2018-07-17T18:36:17.033Z,36.60
2018-07-17T18:38:46.828Z,36.80
2018-07-17T18:43:44.677Z,36.90
2018-07-17T18:46:13.857Z,37.30
2018-07-17T18:48:47.273Z,37.30
2018-07-17T18:51:17.219Z,37.90
2018-07-17T18:53:46.764Z,38.20
2018-07-17T18:56:15.979Z,38.00
2018-07-17T18:58:45.400Z,38.60
2018-07-17T19:01:14.339Z,38.70
2018-07-17T19:03:43.324Z,38.90
2018-07-17T19:06:12.416Z,39.20
2018-07-17T19:08:40.931Z,39.30
2018-07-17T19:11:09.766Z,39.50
2018-07-17T19:13:38.328Z,39.90
2018-07-17T19:16:07.374Z,40.40
2018-07-17T19:18:35.844Z,40.40
2018-07-17T19:21:06.451Z,40.50
2018-07-17T19:23:35.028Z,40.80
2018-07-17T19:26:03.984Z,41.00
2018-07-17T19:28:33.144Z,41.30
2018-07-17T19:31:01.708Z,41.50
2018-07-17T19:33:30.366Z,41.70
2018-07-17T19:35:58.843Z,41.80
2018-07-17T19:38:27.286Z,42.40
2018-07-17T19:43:24.811Z,42.40
2018-07-17T19:45:53.325Z,42.90
2018-07-17T19:48:21.957Z,42.80
2018-07-17T19:50:50.615Z,43.40
2018-07-17T19:53:19.064Z,43.50
2018-07-17T19:55:47.640Z,43.30
2018-07-17T19:58:16.457Z,43.50
2018-07-17T20:00:45.040Z,44.00
2018-07-17T20:03:13.652Z,43.80
2018-07-17T20:05:43.277Z,44.10
2018-07-17T20:08:11.955Z,44.20
2018-07-17T20:10:40.596Z,44.50
2018-07-17T20:13:09.303Z,44.70
2018-07-17T20:15:37.934Z,44.80
2018-07-17T20:18:06.660Z,44.90
2018-07-17T20:20:35.144Z,45.20
2018-07-17T20:23:04.050Z,45.20
2018-07-17T20:25:32.691Z,45.50
2018-07-17T20:28:01.185Z,45.80
2018-07-17T20:30:30.012Z,45.80
2018-07-17T20:32:58.786Z,46.00
2018-07-17T20:35:27.389Z,46.10
2018-07-17T20:37:56.219Z,46.70
2018-07-17T20:40:25.714Z,46.30
2018-07-17T20:42:54.718Z,46.40
2018-07-17T20:45:23.340Z,46.70
2018-07-17T20:47:52.816Z,46.70
2018-07-17T20:50:21.457Z,47.00
2018-07-17T20:52:49.954Z,47.20
2018-07-17T20:55:20.369Z,47.50
2018-07-17T20:57:48.867Z,47.50
2018-07-17T21:00:17.327Z,47.60
2018-07-17T21:02:45.807Z,47.80
2018-07-17T21:05:14.227Z,47.90
2018-07-17T21:07:44.562Z,47.90
2018-07-17T21:10:12.991Z,47.80
2018-07-17T21:12:41.489Z,47.80
2018-07-17T21:15:09.959Z,48.10
2018-07-17T21:17:38.431Z,48.30
2018-07-17T21:20:06.877Z,48.50
2018-07-17T21:22:35.347Z,48.60
2018-07-17T21:25:03.831Z,48.60
2018-07-17T21:27:32.342Z,48.90
2018-07-17T21:30:00.776Z,49.20
2018-07-17T21:32:29.257Z,49.40
2018-07-17T21:34:57.711Z,49.60
2018-07-17T21:37:26.184Z,49.80
2018-07-17T21:39:54.637Z,49.70
2018-07-17T21:42:23.135Z,50.00
2018-07-17T21:44:51.579Z,50.10
2018-07-17T21:47:20.056Z,50.30
2018-07-17T21:49:48.484Z,50.40
2018-07-17T21:52:16.991Z,50.50
2018-07-17T21:54:45.428Z,50.80
2018-07-17T21:57:14.592Z,51.00
2018-07-17T21:59:43.028Z,51.20
2018-07-17T22:02:11.506Z,51.50
2018-07-17T22:04:40.000Z,52.00
2018-07-17T22:07:08.437Z,52.10
2018-07-17T22:09:36.908Z,52.20
2018-07-17T22:12:05.707Z,52.30
2018-07-17T22:14:34.228Z,52.90
2018-07-17T22:19:30.824Z,54.40
2018-07-17T22:21:59.303Z,55.10
2018-07-17T22:24:27.783Z,55.50
2018-07-17T22:26:56.236Z,55.70
2018-07-17T22:29:24.732Z,55.70
2018-07-17T22:31:53.526Z,55.90
2018-07-17T22:34:22.001Z,55.90
2018-07-17T22:36:50.455Z,56.30
2018-07-17T22:39:18.907Z,56.30
2018-07-17T22:41:52.237Z,56.10
2018-07-17T22:46:48.835Z,55.70
2018-07-17T22:49:22.610Z,55.80
2018-07-17T22:51:52.792Z,56.10
2018-07-17T22:54:21.300Z,56.70
2018-07-17T22:56:50.560Z,57.00
2018-07-17T22:59:19.639Z,56.40
2018-07-17T23:01:48.870Z,55.90
2018-07-17T23:04:17.700Z,55.80
2018-07-17T23:06:46.167Z,55.90
2018-07-17T23:09:14.647Z,55.80
2018-07-17T23:11:43.160Z,56.00
2018-07-17T23:14:11.709Z,55.80
2018-07-17T23:16:40.179Z,55.80
2018-07-17T23:19:08.690Z,55.60
2018-07-17T23:21:37.158Z,55.50
2018-07-17T23:24:05.999Z,55.60
2018-07-17T23:26:34.445Z,55.20
2018-07-17T23:29:03.046Z,55.10
2018-07-17T23:31:31.483Z,55.10
2018-07-17T23:33:59.960Z,55.00
2018-07-17T23:36:28.408Z,55.00
2018-07-17T23:38:56.871Z,55.10
2018-07-17T23:41:25.321Z,55.40
2018-07-17T23:43:53.799Z,55.50
2018-07-17T23:46:22.282Z,55.70
2018-07-17T23:48:50.930Z,55.70
2018-07-17T23:51:19.384Z,55.80
2018-07-17T23:53:47.883Z,55.80
2018-07-17T23:56:16.343Z,56.00
2018-07-17T23:58:44.824Z,56.10
